Seaexpressii — HO4619 — position and weather

sailwx.info

Track history (hours):
 
Tides and Currents Weather Stations Pressure Air Temp Water Temp Dewpoint Dewpoint Depression Visibility Wind Speed Wind Dir Waves Ship Positions

Seaexpressii

Last reported at 2015-Aug-29 16:33 UTC. Time now 2015-Aug-29 17:00 UTC.
Position N 26°04' W 080°08'.

Length 38 m; draft 2.1 m.

Type: Ship (hazmat cat A). MMSI: 356449000.

Date/timePositionNaut miles runAvg speedWind from/ knotsBaromVisibWave heightAir tempDewpointWater temp
2015-Aug-29 16:33N 26°04' W 080°08'0 0.0
2015-Aug-29 15:33N 26°04' W 080°08'0 0.0
2015-Aug-29 14:33N 26°04' W 080°08'0 0.0
2015-Aug-29 13:33N 26°04' W 080°08'0 0.0
2015-Aug-29 12:33N 26°04' W 080°08'0 0.0
2015-Aug-29 11:33N 26°04' W 080°08'6 5.7
2015-Aug-29 10:33N 26°05' W 080°02'8 8.5
2015-Aug-29 09:33N 26°02' W 079°53'8 7.5
2015-Aug-29 08:33N 26°00' W 079°45'8 8.0
2015-Aug-29 07:33N 25°58' W 079°36'  
2015-Aug-26 19:33N 26°20' W 079°48'1312.5
2015-Aug-26 18:33N 26°11' W 079°58'10 9.9
2015-Aug-26 17:33N 26°05' W 080°07'1 1.2
2015-Aug-26 16:33N 26°04' W 080°08'0 0.0
2015-Aug-26 15:33N 26°04' W 080°08'0 0.0
2015-Aug-26 14:33N 26°04' W 080°08'0 0.0
2015-Aug-26 13:33N 26°04' W 080°08'0 0.0
2015-Aug-26 12:33N 26°04' W 080°08'0 0.0
2015-Aug-26 11:33N 26°04' W 080°08'0 0.0
2015-Aug-26 10:33N 26°04' W 080°08'0 0.0
2015-Aug-26 09:33N 26°04' W 080°08'0 0.0
2015-Aug-26 08:33N 26°04' W 080°08'0 0.0
2015-Aug-26 07:33N 26°04' W 080°08'0 0.0
2015-Aug-26 06:33N 26°04' W 080°08'0 0.0
2015-Aug-26 05:33N 26°04' W 080°08'0 0.0
2015-Aug-26 04:33N 26°04' W 080°08'0 0.0
2015-Aug-26 03:33N 26°04' W 080°08'0 0.0
2015-Aug-26 02:33N 26°04' W 080°08'0 0.0
2015-Aug-26 01:33N 26°04' W 080°08'0 0.0
2015-Aug-26 00:33N 26°04' W 080°08'0 0.0
2015-Aug-25 23:33N 26°04' W 080°08'0 0.0
2015-Aug-25 22:33N 26°04' W 080°08'0 0.0
2015-Aug-25 21:33N 26°04' W 080°08'0 0.0
2015-Aug-25 20:32N 26°04' W 080°08'0 0.0
2015-Aug-25 19:33N 26°04' W 080°08'0 0.0
2015-Aug-25 18:33N 26°04' W 080°08'0 0.0
2015-Aug-25 17:33N 26°04' W 080°08'0 0.0
2015-Aug-25 16:33N 26°04' W 080°08'0 0.0
2015-Aug-25 15:33N 26°04' W 080°08'0 0.0
2015-Aug-25 14:33N 26°04' W 080°08'0 0.0
2015-Aug-25 13:33N 26°04' W 080°08'0 0.0
2015-Aug-25 12:33N 26°04' W 080°08'0 0.0
2015-Aug-25 11:33N 26°04' W 080°08'0 0.0
2015-Aug-25 10:33N 26°04' W 080°08'0 0.0
2015-Aug-25 09:33N 26°04' W 080°08'0 0.0
2015-Aug-25 08:33N 26°04' W 080°08'0 0.0
2015-Aug-25 07:33N 26°04' W 080°08'0 0.0
2015-Aug-25 06:33N 26°04' W 080°08'0 0.0
2015-Aug-25 05:33N 26°04' W 080°08'0 0.0
2015-Aug-25 04:33N 26°04' W 080°08'0 0.0
2015-Aug-25 03:33N 26°04' W 080°08'0 0.0
2015-Aug-25 02:33N 26°04' W 080°08'0 0.0
2015-Aug-25 01:33N 26°04' W 080°08'0 0.0
2015-Aug-25 00:33N 26°04' W 080°08'0 0.0
2015-Aug-24 23:33N 26°04' W 080°08'0 0.0
2015-Aug-24 22:33N 26°04' W 080°08'0 0.0
2015-Aug-24 21:33N 26°04' W 080°08'0 0.0
2015-Aug-24 20:33N 26°04' W 080°08'0 0.0
2015-Aug-24 19:33N 26°04' W 080°08'0 0.0
2015-Aug-24 18:33N 26°04' W 080°08'0 0.0
2015-Aug-24 17:33N 26°04' W 080°08'0 0.0
2015-Aug-24 16:33N 26°04' W 080°08'0 0.0
2015-Aug-24 15:33N 26°04' W 080°08'0 0.0
2015-Aug-24 14:33N 26°04' W 080°08'0 0.0
2015-Aug-24 13:33N 26°04' W 080°08'0 0.0
2015-Aug-24 12:33N 26°04' W 080°08'0 0.0
2015-Aug-24 11:33N 26°04' W 080°08'0 0.0
2015-Aug-24 10:33N 26°04' W 080°08'0 0.0
2015-Aug-24 09:33N 26°04' W 080°08'0 0.0
2015-Aug-24 08:33N 26°04' W 080°08'0 0.0
2015-Aug-24 07:33N 26°04' W 080°08'0 0.0
2015-Aug-24 06:33N 26°04' W 080°08'0 0.0
2015-Aug-24 05:33N 26°04' W 080°08'0 0.0
2015-Aug-24 04:33N 26°04' W 080°08'0 0.0
2015-Aug-24 03:33N 26°04' W 080°08'0 0.0
2015-Aug-24 02:33N 26°04' W 080°08'0 0.0
2015-Aug-24 01:33N 26°04' W 080°08'0 0.0
2015-Aug-24 00:33N 26°04' W 080°08'0 0.0
2015-Aug-23 23:33N 26°04' W 080°08'0 0.0
2015-Aug-23 22:33N 26°04' W 080°08'0 0.0
2015-Aug-23 21:33N 26°04' W 080°08'0 0.0
2015-Aug-23 20:33N 26°04' W 080°08'0 0.0
2015-Aug-23 19:33N 26°04' W 080°08'0 0.0
2015-Aug-23 18:33N 26°04' W 080°08'0 0.0
2015-Aug-23 17:33N 26°04' W 080°08'0 0.0
2015-Aug-23 16:33N 26°04' W 080°08'0 0.0
2015-Aug-23 15:33N 26°04' W 080°08'0 0.0
2015-Aug-23 14:33N 26°04' W 080°08'0 0.0
2015-Aug-23 13:33N 26°04' W 080°08'0 0.0
2015-Aug-23 12:33N 26°04' W 080°08'0 0.0
2015-Aug-23 11:33N 26°04' W 080°08'5 5.0
2015-Aug-23 10:33N 26°05' W 080°02'9 9.0
2015-Aug-23 09:33N 26°02' W 079°53'1010.0
2015-Aug-23 08:33N 25°59' W 079°42'10 9.8
2015-Aug-23 07:33N 25°57' W 079°31'  
2015-Aug-20 00:33N 25°57' W 079°35'9 8.7
2015-Aug-19 23:33N 25°60' W 079°44'8 8.3
2015-Aug-19 22:33N 26°02' W 079°53'8 8.3
2015-Aug-19 21:33N 26°05' W 080°02'5 5.4
2015-Aug-19 20:33N 26°04' W 080°08'0 0.0
2015-Aug-19 19:33N 26°04' W 080°08'0 0.0
2015-Aug-19 18:33N 26°04' W 080°08'0 0.0
2015-Aug-19 17:33N 26°04' W 080°08'0 0.0
2015-Aug-19 16:33N 26°04' W 080°08'  
Track history (hours):
 
Tides and Currents Weather Stations Pressure Air Temp Water Temp Dewpoint Dewpoint Depression Visibility Wind Speed Wind Dir Waves Ship Positions

Seaexpressii

Last reported at 2015-Aug-29 16:33 UTC. Time now 2015-Aug-29 17:00 UTC.
Position N 26°04' W 080°08'.

Length 38 m; draft 2.1 m.

Type: Ship (hazmat cat A). MMSI: 356449000.

Date/timePositionNaut miles runAvg speedWind from/ knotsBaromVisibWave heightAir tempDewpointWater temp
2015-Aug-29 16:33N 26°04' W 080°08'0 0.0
2015-Aug-29 15:33N 26°04' W 080°08'0 0.0
2015-Aug-29 14:33N 26°04' W 080°08'0 0.0
2015-Aug-29 13:33N 26°04' W 080°08'0 0.0
2015-Aug-29 12:33N 26°04' W 080°08'0 0.0
2015-Aug-29 11:33N 26°04' W 080°08'6 5.7
2015-Aug-29 10:33N 26°05' W 080°02'8 8.5
2015-Aug-29 09:33N 26°02' W 079°53'8 7.5
2015-Aug-29 08:33N 26°00' W 079°45'8 8.0
2015-Aug-29 07:33N 25°58' W 079°36'  
2015-Aug-26 19:33N 26°20' W 079°48'1312.5
2015-Aug-26 18:33N 26°11' W 079°58'10 9.9
2015-Aug-26 17:33N 26°05' W 080°07'1 1.2
2015-Aug-26 16:33N 26°04' W 080°08'0 0.0
2015-Aug-26 15:33N 26°04' W 080°08'0 0.0
2015-Aug-26 14:33N 26°04' W 080°08'0 0.0
2015-Aug-26 13:33N 26°04' W 080°08'0 0.0
2015-Aug-26 12:33N 26°04' W 080°08'0 0.0
2015-Aug-26 11:33N 26°04' W 080°08'0 0.0
2015-Aug-26 10:33N 26°04' W 080°08'0 0.0
2015-Aug-26 09:33N 26°04' W 080°08'0 0.0
2015-Aug-26 08:33N 26°04' W 080°08'0 0.0
2015-Aug-26 07:33N 26°04' W 080°08'0 0.0
2015-Aug-26 06:33N 26°04' W 080°08'0 0.0
2015-Aug-26 05:33N 26°04' W 080°08'0 0.0
2015-Aug-26 04:33N 26°04' W 080°08'0 0.0
2015-Aug-26 03:33N 26°04' W 080°08'0 0.0
2015-Aug-26 02:33N 26°04' W 080°08'0 0.0
2015-Aug-26 01:33N 26°04' W 080°08'0 0.0
2015-Aug-26 00:33N 26°04' W 080°08'0 0.0
2015-Aug-25 23:33N 26°04' W 080°08'0 0.0
2015-Aug-25 22:33N 26°04' W 080°08'0 0.0
2015-Aug-25 21:33N 26°04' W 080°08'0 0.0
2015-Aug-25 20:32N 26°04' W 080°08'0 0.0
2015-Aug-25 19:33N 26°04' W 080°08'0 0.0
2015-Aug-25 18:33N 26°04' W 080°08'0 0.0
2015-Aug-25 17:33N 26°04' W 080°08'0 0.0
2015-Aug-25 16:33N 26°04' W 080°08'0 0.0
2015-Aug-25 15:33N 26°04' W 080°08'0 0.0
2015-Aug-25 14:33N 26°04' W 080°08'0 0.0
2015-Aug-25 13:33N 26°04' W 080°08'0 0.0
2015-Aug-25 12:33N 26°04' W 080°08'0 0.0
2015-Aug-25 11:33N 26°04' W 080°08'0 0.0
2015-Aug-25 10:33N 26°04' W 080°08'0 0.0
2015-Aug-25 09:33N 26°04' W 080°08'0 0.0
2015-Aug-25 08:33N 26°04' W 080°08'0 0.0
2015-Aug-25 07:33N 26°04' W 080°08'0 0.0
2015-Aug-25 06:33N 26°04' W 080°08'0 0.0
2015-Aug-25 05:33N 26°04' W 080°08'0 0.0
2015-Aug-25 04:33N 26°04' W 080°08'0 0.0
2015-Aug-25 03:33N 26°04' W 080°08'0 0.0
2015-Aug-25 02:33N 26°04' W 080°08'0 0.0
2015-Aug-25 01:33N 26°04' W 080°08'0 0.0
2015-Aug-25 00:33N 26°04' W 080°08'0 0.0
2015-Aug-24 23:33N 26°04' W 080°08'0 0.0
2015-Aug-24 22:33N 26°04' W 080°08'0 0.0
2015-Aug-24 21:33N 26°04' W 080°08'0 0.0
2015-Aug-24 20:33N 26°04' W 080°08'0 0.0
2015-Aug-24 19:33N 26°04' W 080°08'0 0.0
2015-Aug-24 18:33N 26°04' W 080°08'0 0.0
2015-Aug-24 17:33N 26°04' W 080°08'0 0.0
2015-Aug-24 16:33N 26°04' W 080°08'0 0.0
2015-Aug-24 15:33N 26°04' W 080°08'0 0.0
2015-Aug-24 14:33N 26°04' W 080°08'0 0.0
2015-Aug-24 13:33N 26°04' W 080°08'0 0.0
2015-Aug-24 12:33N 26°04' W 080°08'0 0.0
2015-Aug-24 11:33N 26°04' W 080°08'0 0.0
2015-Aug-24 10:33N 26°04' W 080°08'0 0.0
2015-Aug-24 09:33N 26°04' W 080°08'0 0.0
2015-Aug-24 08:33N 26°04' W 080°08'0 0.0
2015-Aug-24 07:33N 26°04' W 080°08'0 0.0
2015-Aug-24 06:33N 26°04' W 080°08'0 0.0
2015-Aug-24 05:33N 26°04' W 080°08'0 0.0
2015-Aug-24 04:33N 26°04' W 080°08'0 0.0
2015-Aug-24 03:33N 26°04' W 080°08'0 0.0
2015-Aug-24 02:33N 26°04' W 080°08'0 0.0
2015-Aug-24 01:33N 26°04' W 080°08'0 0.0
2015-Aug-24 00:33N 26°04' W 080°08'0 0.0
2015-Aug-23 23:33N 26°04' W 080°08'0 0.0
2015-Aug-23 22:33N 26°04' W 080°08'0 0.0
2015-Aug-23 21:33N 26°04' W 080°08'0 0.0
2015-Aug-23 20:33N 26°04' W 080°08'0 0.0
2015-Aug-23 19:33N 26°04' W 080°08'0 0.0
2015-Aug-23 18:33N 26°04' W 080°08'0 0.0
2015-Aug-23 17:33N 26°04' W 080°08'0 0.0
2015-Aug-23 16:33N 26°04' W 080°08'0 0.0
2015-Aug-23 15:33N 26°04' W 080°08'0 0.0
2015-Aug-23 14:33N 26°04' W 080°08'0 0.0
2015-Aug-23 13:33N 26°04' W 080°08'0 0.0
2015-Aug-23 12:33N 26°04' W 080°08'0 0.0
2015-Aug-23 11:33N 26°04' W 080°08'5 5.0
2015-Aug-23 10:33N 26°05' W 080°02'9 9.0
2015-Aug-23 09:33N 26°02' W 079°53'1010.0
2015-Aug-23 08:33N 25°59' W 079°42'10 9.8
2015-Aug-23 07:33N 25°57' W 079°31'  
2015-Aug-20 00:33N 25°57' W 079°35'9 8.7
2015-Aug-19 23:33N 25°60' W 079°44'8 8.3
2015-Aug-19 22:33N 26°02' W 079°53'8 8.3
2015-Aug-19 21:33N 26°05' W 080°02'5 5.4
2015-Aug-19 20:33N 26°04' W 080°08'0 0.0
2015-Aug-19 19:33N 26°04' W 080°08'0 0.0
2015-Aug-19 18:33N 26°04' W 080°08'0 0.0
2015-Aug-19 17:33N 26°04' W 080°08'0 0.0
2015-Aug-19 16:33N 26°04' W 080°08'  

Dump ship's entire track history